TKY1905 EDAH-EGBB
Flight info
| Callsign | TKY1905 |
|---|---|
| Flight time | N/A |
| Altitude | 36000 |
| Route | MASOR1E MASOR M725 UDAXI L23 HAM M170 ELSOB DCT BEDUM DCT MIMVA L602 NALAX L46 LIBSO |
| Aircraft | A319/M-SDE3FGHIRWY/LB1 |
Departure
| Time | 2026-04-16 16:00 |
|---|---|
| Airport | Heringsdorf Airport (EDAH) |
Arrival
| Time | N/A |
|---|---|
| Airport | Birmingham Airport (EGBB) |
| Time | Latitude | Longitude | Altitude | Speed | Heading |
|---|---|---|---|---|---|
| 2026-04-16 15:54 | 53.87911 | 14.13903 | 71 ft | 0 kts | 299° |
| 2026-04-16 15:58 | 53.87914 | 14.13896 | 71 ft | 7 kts | 306° |
| 2026-04-16 15:59 | 53.88091 | 14.13984 | 71 ft | 13 kts | 127° |
| 2026-04-16 15:59 | 53.88008 | 14.14384 | 69 ft | 70 kts | 103° |
| 2026-04-16 15:59 | 53.87820 | 14.15551 | 73 ft | 133 kts | 105° |
| 2026-04-16 16:00 | 53.87524 | 14.17179 | 552 ft | 133 kts | 109° |
| 2026-04-16 16:00 | 53.87205 | 14.18468 | 1234 ft | 116 kts | 114° |
| 2026-04-16 16:00 | 53.86786 | 14.19909 | 1233 ft | 153 kts | 117° |
| 2026-04-16 16:00 | 53.86323 | 14.21313 | 2035 ft | 125 kts | 122° |
| 2026-04-16 16:01 | 53.85855 | 14.22587 | 2251 ft | 140 kts | 125° |
| 2026-04-16 16:01 | 53.85242 | 14.24096 | 2540 ft | 151 kts | 127° |
| 2026-04-16 16:01 | 53.84692 | 14.25734 | 2917 ft | 173 kts | 117° |
| 2026-04-16 16:01 | 53.84328 | 14.27827 | 3202 ft | 200 kts | 96° |
| 2026-04-16 16:02 | 53.84313 | 14.30375 | 3565 ft | 229 kts | 96° |
| 2026-04-16 16:02 | 53.83635 | 14.32757 | 4477 ft | 227 kts | 140° |
| 2026-04-16 16:02 | 53.82255 | 14.33765 | 5562 ft | 215 kts | 183° |
| 2026-04-16 16:02 | 53.80871 | 14.33092 | 6499 ft | 207 kts | 217° |
| 2026-04-16 16:03 | 53.79663 | 14.31759 | 7387 ft | 208 kts | 219° |
| 2026-04-16 16:03 | 53.78467 | 14.30364 | 8259 ft | 209 kts | 227° |
| 2026-04-16 16:03 | 53.77657 | 14.28401 | 9121 ft | 203 kts | 251° |
| 2026-04-16 16:03 | 53.77192 | 14.26145 | 9919 ft | 211 kts | 262° |
| 2026-04-16 16:04 | 53.77052 | 14.23569 | 10379 ft | 232 kts | 273° |
| 2026-04-16 16:04 | 53.77000 | 14.20703 | 10842 ft | 256 kts | 270° |
| 2026-04-16 16:04 | 53.76897 | 14.17548 | 11306 ft | 281 kts | 269° |
| 2026-04-16 16:04 | 53.76820 | 14.14104 | 11738 ft | 305 kts | 276° |
| 2026-04-16 16:05 | 53.77415 | 14.10566 | 12089 ft | 327 kts | 296° |
| 2026-04-16 16:05 | 53.78523 | 14.07069 | 12528 ft | 345 kts | 299° |
| 2026-04-16 16:05 | 53.79705 | 14.03492 | 13315 ft | 351 kts | 299° |
| 2026-04-16 16:05 | 53.80684 | 14.00559 | 14016 ft | 355 kts | 299° |